Cap-Chat, Canada
Current Conditions -  °F | °C
As of 2:00 PM on Wednesday 26 Nov 2014 (Local Time) from CYBC Reporting Station
Clear Clear  
Wind Chill: 21°   Ceiling: Unl
Heat Index: 28°   Visibility: 9mi
Dew Point: 14°   Wind: 7mph
Humidity: 55%   Direction: 300°WNW
Pressure: 30.19"   Gusts: NA
Location:  49.08°N, 66.68°W
Report Text: CYBC 261800Z AUTO 30006KT 9SM CLR M02/M10 A3019 RMK PRESFR SLP224
Loading
Personal Weather Stations






























Interactive Weather Map New forecast layout! Learn more

10-Day Weather Forecast

Advertisements
Track Severe Weather on mobile